sensor_id;sensor_type;location;lat;lon;timestamp;temperature;humidity
22742;DHT22;11538;48.884;8.696;2022-07-29T00:00:00;21.70;99.90
22742;DHT22;11538;48.884;8.696;2022-07-29T00:02:28;21.70;99.90
22742;DHT22;11538;48.884;8.696;2022-07-29T00:04:55;21.70;99.90
22742;DHT22;11538;48.884;8.696;2022-07-29T00:07:22;21.70;99.90
22742;DHT22;11538;48.884;8.696;2022-07-29T00:09:48;21.70;99.90
22742;DHT22;11538;48.884;8.696;2022-07-29T00:12:23;21.80;99.90
22742;DHT22;11538;48.884;8.696;2022-07-29T00:14:54;21.70;99.90
22742;DHT22;11538;48.884;8.696;2022-07-29T00:17:23;21.70;99.90
22742;DHT22;11538;48.884;8.696;2022-07-29T00:19:51;21.80;99.90
22742;DHT22;11538;48.884;8.696;2022-07-29T00:22:19;21.80;99.90
22742;DHT22;11538;48.884;8.696;2022-07-29T00:24:49;21.80;99.90
22742;DHT22;11538;48.884;8.696;2022-07-29T00:27:17;21.90;99.90
22742;DHT22;11538;48.884;8.696;2022-07-29T00:29:44;21.90;99.90
22742;DHT22;11538;48.884;8.696;2022-07-29T00:32:12;21.90;99.90
22742;DHT22;11538;48.884;8.696;2022-07-29T00:34:39;21.90;99.90
22742;DHT22;11538;48.884;8.696;2022-07-29T00:37:25;21.80;99.90
22742;DHT22;11538;48.884;8.696;2022-07-29T00:39:52;21.90;99.90
22742;DHT22;11538;48.884;8.696;2022-07-29T00:42:19;21.90;99.90
22742;DHT22;11538;48.884;8.696;2022-07-29T00:44:46;21.90;99.90
22742;DHT22;11538;48.884;8.696;2022-07-29T00:47:13;21.80;99.90
22742;DHT22;11538;48.884;8.696;2022-07-29T00:49:41;21.80;99.90
22742;DHT22;11538;48.884;8.696;2022-07-29T00:52:09;21.80;99.90
22742;DHT22;11538;48.884;8.696;2022-07-29T00:54:39;21.80;99.90
22742;DHT22;11538;48.884;8.696;2022-07-29T00:57:11;21.80;99.90
22742;DHT22;11538;48.884;8.696;2022-07-29T00:59:38;21.80;99.90
22742;DHT22;11538;48.884;8.696;2022-07-29T01:02:06;21.80;99.90
22742;DHT22;11538;48.884;8.696;2022-07-29T01:04:33;21.80;99.90
22742;DHT22;11538;48.884;8.696;2022-07-29T01:07:04;21.80;99.90
22742;DHT22;11538;48.884;8.696;2022-07-29T01:09:32;21.80;99.90
22742;DHT22;11538;48.884;8.696;2022-07-29T01:12:22;21.80;99.90
22742;DHT22;11538;48.884;8.696;2022-07-29T01:14:52;21.70;99.90
22742;DHT22;11538;48.884;8.696;2022-07-29T01:17:26;21.80;99.90
22742;DHT22;11538;48.884;8.696;2022-07-29T01:30:01;21.70;99.90
22742;DHT22;11538;48.884;8.696;2022-07-29T01:32:36;21.70;99.90
22742;DHT22;11538;48.884;8.696;2022-07-29T01:35:26;21.80;99.90
22742;DHT22;11538;48.884;8.696;2022-07-29T01:38:20;21.80;99.90
22742;DHT22;11538;48.884;8.696;2022-07-29T01:40:53;21.70;99.90
22742;DHT22;11538;48.884;8.696;2022-07-29T01:43:35;21.70;99.90
22742;DHT22;11538;48.884;8.696;2022-07-29T01:46:11;21.80;99.90
22742;DHT22;11538;48.884;8.696;2022-07-29T01:48:53;21.80;99.90
22742;DHT22;11538;48.884;8.696;2022-07-29T01:51:47;21.80;99.90
22742;DHT22;11538;48.884;8.696;2022-07-29T01:54:32;21.80;99.90
22742;DHT22;11538;48.884;8.696;2022-07-29T01:57:05;21.80;99.90
22742;DHT22;11538;48.884;8.696;2022-07-29T01:59:35;21.70;99.90
22742;DHT22;11538;48.884;8.696;2022-07-29T02:02:04;21.70;99.90
22742;DHT22;11538;48.884;8.696;2022-07-29T02:04:36;21.60;99.90
22742;DHT22;11538;48.884;8.696;2022-07-29T02:07:07;21.60;99.90
22742;DHT22;11538;48.884;8.696;2022-07-29T02:09:40;21.60;99.90
22742;DHT22;11538;48.884;8.696;2022-07-29T02:12:10;21.60;99.90
22742;DHT22;11538;48.884;8.696;2022-07-29T02:14:51;21.50;99.90
22742;DHT22;11538;48.884;8.696;2022-07-29T02:17:23;21.50;99.90
22742;DHT22;11538;48.884;8.696;2022-07-29T02:19:57;21.50;99.90
22742;DHT22;11538;48.884;8.696;2022-07-29T02:22:30;21.50;99.90
22742;DHT22;11538;48.884;8.696;2022-07-29T02:24:59;21.40;99.90
22742;DHT22;11538;48.884;8.696;2022-07-29T02:27:29;21.30;99.90
22742;DHT22;11538;48.884;8.696;2022-07-29T02:30:02;21.30;99.90
22742;DHT22;11538;48.884;8.696;2022-07-29T02:32:32;21.30;99.90
22742;DHT22;11538;48.884;8.696;2022-07-29T02:35:02;21.20;99.90
22742;DHT22;11538;48.884;8.696;2022-07-29T02:37:30;21.20;99.90
22742;DHT22;11538;48.884;8.696;2022-07-29T02:39:59;21.20;99.90
22742;DHT22;11538;48.884;8.696;2022-07-29T02:42:27;21.20;99.90
22742;DHT22;11538;48.884;8.696;2022-07-29T02:44:55;21.10;99.90
22742;DHT22;11538;48.884;8.696;2022-07-29T02:47:39;21.10;99.90
22742;DHT22;11538;48.884;8.696;2022-07-29T02:53:05;21.10;99.90
22742;DHT22;11538;48.884;8.696;2022-07-29T02:55:51;21.10;99.90
22742;DHT22;11538;48.884;8.696;2022-07-29T02:58:27;21.00;99.90
22742;DHT22;11538;48.884;8.696;2022-07-29T03:00:59;21.00;99.90
22742;DHT22;11538;48.884;8.696;2022-07-29T03:03:35;21.00;99.90
22742;DHT22;11538;48.884;8.696;2022-07-29T03:06:05;21.00;99.90
22742;DHT22;11538;48.884;8.696;2022-07-29T03:08:34;20.90;99.90
22742;DHT22;11538;48.884;8.696;2022-07-29T03:11:02;20.90;99.90
22742;DHT22;11538;48.884;8.696;2022-07-29T03:13:31;20.90;99.90
22742;DHT22;11538;48.884;8.696;2022-07-29T03:15:58;20.90;99.90
22742;DHT22;11538;48.884;8.696;2022-07-29T03:18:27;20.90;99.90
22742;DHT22;11538;48.884;8.696;2022-07-29T03:20:54;20.80;99.90
22742;DHT22;11538;48.884;8.696;2022-07-29T03:23:22;20.80;99.90
22742;DHT22;11538;48.884;8.696;2022-07-29T03:25:50;20.80;99.90
22742;DHT22;11538;48.884;8.696;2022-07-29T03:28:18;20.80;99.90
22742;DHT22;11538;48.884;8.696;2022-07-29T03:30:47;20.70;99.90
22742;DHT22;11538;48.884;8.696;2022-07-29T03:33:16;20.70;99.90
22742;DHT22;11538;48.884;8.696;2022-07-29T03:35:43;20.70;99.90
22742;DHT22;11538;48.884;8.696;2022-07-29T03:38:10;20.70;99.90
22742;DHT22;11538;48.884;8.696;2022-07-29T03:40:51;20.70;99.90
22742;DHT22;11538;48.884;8.696;2022-07-29T03:43:26;20.60;99.90
22742;DHT22;11538;48.884;8.696;2022-07-29T03:45:57;20.60;99.90
22742;DHT22;11538;48.884;8.696;2022-07-29T03:48:28;20.60;99.90
22742;DHT22;11538;48.884;8.696;2022-07-29T03:50:59;20.60;99.90
22742;DHT22;11538;48.884;8.696;2022-07-29T03:53:26;20.60;99.90
22742;DHT22;11538;48.884;8.696;2022-07-29T03:55:58;20.60;99.90
22742;DHT22;11538;48.884;8.696;2022-07-29T03:58:27;20.60;99.90
22742;DHT22;11538;48.884;8.696;2022-07-29T04:00:57;20.60;99.90
22742;DHT22;11538;48.884;8.696;2022-07-29T04:03:25;20.60;99.90
22742;DHT22;11538;48.884;8.696;2022-07-29T04:06:01;20.50;99.90
22742;DHT22;11538;48.884;8.696;2022-07-29T04:08:35;20.50;99.90
22742;DHT22;11538;48.884;8.696;2022-07-29T04:11:03;20.50;99.90
22742;DHT22;11538;48.884;8.696;2022-07-29T04:13:32;20.50;99.90
22742;DHT22;11538;48.884;8.696;2022-07-29T04:15:59;20.50;99.90
22742;DHT22;11538;48.884;8.696;2022-07-29T04:18:27;20.50;99.90
22742;DHT22;11538;48.884;8.696;2022-07-29T04:20:54;20.50;99.90
22742;DHT22;11538;48.884;8.696;2022-07-29T04:23:21;20.50;99.90
22742;DHT22;11538;48.884;8.696;2022-07-29T04:25:48;20.50;99.90
22742;DHT22;11538;48.884;8.696;2022-07-29T04:28:14;20.50;99.90
22742;DHT22;11538;48.884;8.696;2022-07-29T04:30:42;20.40;99.90
22742;DHT22;11538;48.884;8.696;2022-07-29T04:33:09;20.40;99.90
22742;DHT22;11538;48.884;8.696;2022-07-29T04:35:37;20.40;99.90
22742;DHT22;11538;48.884;8.696;2022-07-29T04:38:15;20.40;99.90
22742;DHT22;11538;48.884;8.696;2022-07-29T04:40:42;20.40;99.90
22742;DHT22;11538;48.884;8.696;2022-07-29T04:43:09;20.30;99.90
22742;DHT22;11538;48.884;8.696;2022-07-29T04:45:39;20.30;99.90
22742;DHT22;11538;48.884;8.696;2022-07-29T04:48:06;20.30;99.90
22742;DHT22;11538;48.884;8.696;2022-07-29T04:50:34;20.30;99.90
22742;DHT22;11538;48.884;8.696;2022-07-29T04:53:03;20.20;99.90
22742;DHT22;11538;48.884;8.696;2022-07-29T04:55:30;20.30;99.90
22742;DHT22;11538;48.884;8.696;2022-07-29T04:57:57;20.30;99.90
22742;DHT22;11538;48.884;8.696;2022-07-29T05:00:24;20.30;99.90
22742;DHT22;11538;48.884;8.696;2022-07-29T05:02:59;20.30;99.90
22742;DHT22;11538;48.884;8.696;2022-07-29T05:05:26;20.30;99.90
22742;DHT22;11538;48.884;8.696;2022-07-29T05:07:54;20.40;99.90
22742;DHT22;11538;48.884;8.696;2022-07-29T05:10:22;20.40;99.90
22742;DHT22;11538;48.884;8.696;2022-07-29T05:12:49;20.40;99.90
22742;DHT22;11538;48.884;8.696;2022-07-29T05:15:16;20.40;99.90
22742;DHT22;11538;48.884;8.696;2022-07-29T05:17:44;20.50;99.90
22742;DHT22;11538;48.884;8.696;2022-07-29T05:20:11;20.50;99.90
22742;DHT22;11538;48.884;8.696;2022-07-29T05:22:38;20.60;99.90
22742;DHT22;11538;48.884;8.696;2022-07-29T05:25:05;20.70;99.90
22742;DHT22;11538;48.884;8.696;2022-07-29T05:27:35;20.70;99.90
22742;DHT22;11538;48.884;8.696;2022-07-29T05:30:03;20.70;99.90
22742;DHT22;11538;48.884;8.696;2022-07-29T05:32:30;20.80;99.90
22742;DHT22;11538;48.884;8.696;2022-07-29T05:34:58;20.80;99.90
22742;DHT22;11538;48.884;8.696;2022-07-29T05:37:25;20.90;99.90
22742;DHT22;11538;48.884;8.696;2022-07-29T05:39:52;21.00;99.90
22742;DHT22;11538;48.884;8.696;2022-07-29T05:42:23;21.00;99.90
22742;DHT22;11538;48.884;8.696;2022-07-29T05:44:53;21.00;99.90
22742;DHT22;11538;48.884;8.696;2022-07-29T05:47:21;21.10;99.90
22742;DHT22;11538;48.884;8.696;2022-07-29T05:49:48;21.10;99.90
22742;DHT22;11538;48.884;8.696;2022-07-29T05:52:15;21.10;99.90
22742;DHT22;11538;48.884;8.696;2022-07-29T05:54:42;21.20;99.90
22742;DHT22;11538;48.884;8.696;2022-07-29T05:57:20;21.20;99.90
22742;DHT22;11538;48.884;8.696;2022-07-29T05:59:49;21.30;99.90
22742;DHT22;11538;48.884;8.696;2022-07-29T06:02:17;21.30;99.90
22742;DHT22;11538;48.884;8.696;2022-07-29T06:04:44;21.40;99.90
22742;DHT22;11538;48.884;8.696;2022-07-29T06:07:11;21.40;99.90
22742;DHT22;11538;48.884;8.696;2022-07-29T06:09:38;21.40;99.90
22742;DHT22;11538;48.884;8.696;2022-07-29T06:12:05;21.50;99.90
22742;DHT22;11538;48.884;8.696;2022-07-29T06:14:32;21.60;99.90
22742;DHT22;11538;48.884;8.696;2022-07-29T06:16:59;21.60;99.90
22742;DHT22;11538;48.884;8.696;2022-07-29T06:19:26;21.70;99.90
22742;DHT22;11538;48.884;8.696;2022-07-29T06:21:53;21.70;99.90
22742;DHT22;11538;48.884;8.696;2022-07-29T06:24:20;21.70;99.90
22742;DHT22;11538;48.884;8.696;2022-07-29T06:26:47;21.70;99.90
22742;DHT22;11538;48.884;8.696;2022-07-29T06:29:14;21.80;99.90
22742;DHT22;11538;48.884;8.696;2022-07-29T06:31:41;21.80;99.90
22742;DHT22;11538;48.884;8.696;2022-07-29T06:34:09;21.90;99.90
22742;DHT22;11538;48.884;8.696;2022-07-29T06:36:37;21.90;99.90
22742;DHT22;11538;48.884;8.696;2022-07-29T06:39:07;21.90;99.90
22742;DHT22;11538;48.884;8.696;2022-07-29T06:41:34;22.00;99.90
22742;DHT22;11538;48.884;8.696;2022-07-29T06:44:02;22.00;99.90
22742;DHT22;11538;48.884;8.696;2022-07-29T06:46:29;22.10;99.90
22742;DHT22;11538;48.884;8.696;2022-07-29T06:48:56;22.10;99.90
22742;DHT22;11538;48.884;8.696;2022-07-29T06:51:23;22.10;99.90
22742;DHT22;11538;48.884;8.696;2022-07-29T06:53:51;22.10;99.90
22742;DHT22;11538;48.884;8.696;2022-07-29T06:56:28;22.20;99.90
22742;DHT22;11538;48.884;8.696;2022-07-29T06:59:06;22.20;99.90
22742;DHT22;11538;48.884;8.696;2022-07-29T07:01:36;22.30;99.90
22742;DHT22;11538;48.884;8.696;2022-07-29T07:04:05;22.30;99.90
22742;DHT22;11538;48.884;8.696;2022-07-29T07:06:32;22.40;99.90
22742;DHT22;11538;48.884;8.696;2022-07-29T07:08:59;22.40;99.90
22742;DHT22;11538;48.884;8.696;2022-07-29T07:11:26;22.60;99.90
22742;DHT22;11538;48.884;8.696;2022-07-29T07:13:53;22.70;99.90
22742;DHT22;11538;48.884;8.696;2022-07-29T07:16:27;22.80;99.90
22742;DHT22;11538;48.884;8.696;2022-07-29T07:18:54;22.80;99.90
22742;DHT22;11538;48.884;8.696;2022-07-29T07:21:21;22.90;99.90
22742;DHT22;11538;48.884;8.696;2022-07-29T07:23:49;23.00;99.90
22742;DHT22;11538;48.884;8.696;2022-07-29T07:26:15;23.00;99.90
22742;DHT22;11538;48.884;8.696;2022-07-29T07:28:42;23.10;99.90
22742;DHT22;11538;48.884;8.696;2022-07-29T07:31:10;23.10;99.90
22742;DHT22;11538;48.884;8.696;2022-07-29T07:33:37;23.20;99.90
22742;DHT22;11538;48.884;8.696;2022-07-29T07:36:04;23.20;99.90
22742;DHT22;11538;48.884;8.696;2022-07-29T07:38:31;23.30;99.90
22742;DHT22;11538;48.884;8.696;2022-07-29T07:40:58;23.40;99.90
22742;DHT22;11538;48.884;8.696;2022-07-29T07:43:26;23.50;99.90
22742;DHT22;11538;48.884;8.696;2022-07-29T07:45:53;23.60;99.90
22742;DHT22;11538;48.884;8.696;2022-07-29T07:48:20;23.70;99.90
22742;DHT22;11538;48.884;8.696;2022-07-29T07:50:47;23.80;99.90
22742;DHT22;11538;48.884;8.696;2022-07-29T07:53:16;23.80;99.90
22742;DHT22;11538;48.884;8.696;2022-07-29T07:55:43;23.90;99.90
22742;DHT22;11538;48.884;8.696;2022-07-29T07:58:31;24.10;99.90
22742;DHT22;11538;48.884;8.696;2022-07-29T08:00:58;24.10;99.90
22742;DHT22;11538;48.884;8.696;2022-07-29T08:03:25;24.20;99.90
22742;DHT22;11538;48.884;8.696;2022-07-29T08:05:52;24.20;99.90
22742;DHT22;11538;48.884;8.696;2022-07-29T08:08:20;24.30;99.90
22742;DHT22;11538;48.884;8.696;2022-07-29T08:10:47;24.40;99.90
22742;DHT22;11538;48.884;8.696;2022-07-29T08:13:24;24.40;99.90
22742;DHT22;11538;48.884;8.696;2022-07-29T08:15:54;24.50;99.90
22742;DHT22;11538;48.884;8.696;2022-07-29T08:18:30;24.60;99.90
22742;DHT22;11538;48.884;8.696;2022-07-29T08:20:58;24.60;99.90
22742;DHT22;11538;48.884;8.696;2022-07-29T08:23:25;24.70;99.90
22742;DHT22;11538;48.884;8.696;2022-07-29T08:26:19;24.70;99.90
22742;DHT22;11538;48.884;8.696;2022-07-29T08:28:49;24.90;99.90
22742;DHT22;11538;48.884;8.696;2022-07-29T08:31:17;25.10;99.90
22742;DHT22;11538;48.884;8.696;2022-07-29T08:33:44;25.30;99.90
22742;DHT22;11538;48.884;8.696;2022-07-29T08:36:11;25.40;99.90
22742;DHT22;11538;48.884;8.696;2022-07-29T08:38:39;25.60;99.90
22742;DHT22;11538;48.884;8.696;2022-07-29T08:41:06;25.70;99.90
22742;DHT22;11538;48.884;8.696;2022-07-29T08:43:33;25.90;99.90
22742;DHT22;11538;48.884;8.696;2022-07-29T08:46:03;26.00;99.90
22742;DHT22;11538;48.884;8.696;2022-07-29T08:48:31;26.20;99.90
22742;DHT22;11538;48.884;8.696;2022-07-29T08:50:59;26.30;99.90
22742;DHT22;11538;48.884;8.696;2022-07-29T08:53:30;26.50;99.90
22742;DHT22;11538;48.884;8.696;2022-07-29T08:55:59;26.70;99.90
22742;DHT22;11538;48.884;8.696;2022-07-29T08:58:32;26.80;99.90
22742;DHT22;11538;48.884;8.696;2022-07-29T09:01:04;26.90;99.90
22742;DHT22;11538;48.884;8.696;2022-07-29T09:03:35;27.00;99.90
22742;DHT22;11538;48.884;8.696;2022-07-29T09:06:04;27.10;99.90
22742;DHT22;11538;48.884;8.696;2022-07-29T09:08:32;27.20;99.90
22742;DHT22;11538;48.884;8.696;2022-07-29T09:11:01;27.30;99.90
22742;DHT22;11538;48.884;8.696;2022-07-29T09:13:31;27.50;99.90
22742;DHT22;11538;48.884;8.696;2022-07-29T09:15:58;27.70;99.90
22742;DHT22;11538;48.884;8.696;2022-07-29T09:18:42;27.80;99.90
22742;DHT22;11538;48.884;8.696;2022-07-29T09:21:13;28.00;99.90
22742;DHT22;11538;48.884;8.696;2022-07-29T09:26:46;28.30;99.90
22742;DHT22;11538;48.884;8.696;2022-07-29T09:29:23;28.40;99.90
22742;DHT22;11538;48.884;8.696;2022-07-29T09:31:53;28.60;99.90
22742;DHT22;11538;48.884;8.696;2022-07-29T09:34:24;28.70;99.90
22742;DHT22;11538;48.884;8.696;2022-07-29T09:36:58;28.80;99.90
22742;DHT22;11538;48.884;8.696;2022-07-29T09:39:30;29.00;99.90
22742;DHT22;11538;48.884;8.696;2022-07-29T09:42:03;29.10;99.90
22742;DHT22;11538;48.884;8.696;2022-07-29T09:44:45;29.20;99.90
22742;DHT22;11538;48.884;8.696;2022-07-29T09:47:16;29.40;99.90
22742;DHT22;11538;48.884;8.696;2022-07-29T09:49:53;29.50;99.90
22742;DHT22;11538;48.884;8.696;2022-07-29T09:52:28;29.60;99.90
22742;DHT22;11538;48.884;8.696;2022-07-29T09:55:07;29.80;99.90
22742;DHT22;11538;48.884;8.696;2022-07-29T09:57:39;29.90;99.90
22742;DHT22;11538;48.884;8.696;2022-07-29T10:00:08;30.00;99.90
22742;DHT22;11538;48.884;8.696;2022-07-29T10:02:37;30.20;99.90
22742;DHT22;11538;48.884;8.696;2022-07-29T10:05:23;30.40;99.90
22742;DHT22;11538;48.884;8.696;2022-07-29T10:07:58;30.50;99.90
22742;DHT22;11538;48.884;8.696;2022-07-29T10:10:31;30.70;99.90
22742;DHT22;11538;48.884;8.696;2022-07-29T10:13:02;30.80;99.90
22742;DHT22;11538;48.884;8.696;2022-07-29T10:15:43;31.00;99.90
22742;DHT22;11538;48.884;8.696;2022-07-29T10:18:13;31.10;99.90
22742;DHT22;11538;48.884;8.696;2022-07-29T10:20:41;31.20;99.90
22742;DHT22;11538;48.884;8.696;2022-07-29T10:23:09;31.30;99.90
22742;DHT22;11538;48.884;8.696;2022-07-29T10:25:36;31.40;99.90
22742;DHT22;11538;48.884;8.696;2022-07-29T10:28:05;31.50;99.90
22742;DHT22;11538;48.884;8.696;2022-07-29T10:30:32;31.40;99.90
22742;DHT22;11538;48.884;8.696;2022-07-29T10:39:58;31.60;99.90
22742;DHT22;11538;48.884;8.696;2022-07-29T10:42:55;31.80;99.90
22742;DHT22;11538;48.884;8.696;2022-07-29T10:45:29;31.90;99.90
22742;DHT22;11538;48.884;8.696;2022-07-29T10:48:04;32.00;99.90
22742;DHT22;11538;48.884;8.696;2022-07-29T10:50:56;32.10;99.90
22742;DHT22;11538;48.884;8.696;2022-07-29T10:53:50;32.20;99.90
22742;DHT22;11538;48.884;8.696;2022-07-29T10:56:27;32.30;99.90
22742;DHT22;11538;48.884;8.696;2022-07-29T11:01:50;32.50;99.90
22742;DHT22;11538;48.884;8.696;2022-07-29T11:07:10;32.70;99.90
22742;DHT22;11538;48.884;8.696;2022-07-29T11:09:40;32.90;99.90
22742;DHT22;11538;48.884;8.696;2022-07-29T11:12:45;32.90;99.90
22742;DHT22;11538;48.884;8.696;2022-07-29T11:15:15;32.90;99.90
22742;DHT22;11538;48.884;8.696;2022-07-29T11:20:46;32.70;99.90
22742;DHT22;11538;48.884;8.696;2022-07-29T11:29:04;32.80;99.90
22742;DHT22;11538;48.884;8.696;2022-07-29T11:31:45;32.70;99.90
22742;DHT22;11538;48.884;8.696;2022-07-29T11:34:29;32.80;99.90
22742;DHT22;11538;48.884;8.696;2022-07-29T11:39:37;32.60;99.90
22742;DHT22;11538;48.884;8.696;2022-07-29T11:45:15;32.50;99.90
22742;DHT22;11538;48.884;8.696;2022-07-29T11:48:07;32.30;99.90
22742;DHT22;11538;48.884;8.696;2022-07-29T11:50:58;32.20;99.90
22742;DHT22;11538;48.884;8.696;2022-07-29T11:53:25;32.10;99.90
22742;DHT22;11538;48.884;8.696;2022-07-29T11:55:59;32.00;99.90
22742;DHT22;11538;48.884;8.696;2022-07-29T11:58:29;31.70;99.90
22742;DHT22;11538;48.884;8.696;2022-07-29T12:00:57;31.50;99.90
22742;DHT22;11538;48.884;8.696;2022-07-29T12:03:32;31.30;99.90
22742;DHT22;11538;48.884;8.696;2022-07-29T12:06:12;31.10;99.90
22742;DHT22;11538;48.884;8.696;2022-07-29T12:09:00;30.90;99.90
22742;DHT22;11538;48.884;8.696;2022-07-29T12:11:36;30.70;99.90
22742;DHT22;11538;48.884;8.696;2022-07-29T12:14:05;30.50;99.90
22742;DHT22;11538;48.884;8.696;2022-07-29T12:16:36;30.30;99.90
22742;DHT22;11538;48.884;8.696;2022-07-29T12:19:06;30.10;99.90
22742;DHT22;11538;48.884;8.696;2022-07-29T12:21:50;29.90;99.90
22742;DHT22;11538;48.884;8.696;2022-07-29T12:24:23;29.60;99.90
22742;DHT22;11538;48.884;8.696;2022-07-29T12:26:55;29.50;99.90
22742;DHT22;11538;48.884;8.696;2022-07-29T12:29:39;29.40;99.90
22742;DHT22;11538;48.884;8.696;2022-07-29T12:32:13;29.30;99.90
22742;DHT22;11538;48.884;8.696;2022-07-29T12:34:45;29.30;99.90
22742;DHT22;11538;48.884;8.696;2022-07-29T12:37:13;29.30;99.90
22742;DHT22;11538;48.884;8.696;2022-07-29T12:39:40;29.20;99.90
22742;DHT22;11538;48.884;8.696;2022-07-29T12:42:14;29.10;99.90
22742;DHT22;11538;48.884;8.696;2022-07-29T12:44:48;29.10;99.90
22742;DHT22;11538;48.884;8.696;2022-07-29T12:47:17;29.10;99.90
22742;DHT22;11538;48.884;8.696;2022-07-29T12:49:45;29.00;99.90
22742;DHT22;11538;48.884;8.696;2022-07-29T12:52:32;29.00;99.90
22742;DHT22;11538;48.884;8.696;2022-07-29T12:55:00;29.00;99.90
22742;DHT22;11538;48.884;8.696;2022-07-29T12:57:28;29.00;99.90
22742;DHT22;11538;48.884;8.696;2022-07-29T13:00:10;29.00;99.90
22742;DHT22;11538;48.884;8.696;2022-07-29T13:02:40;29.00;99.90
22742;DHT22;11538;48.884;8.696;2022-07-29T13:05:10;29.00;99.90
22742;DHT22;11538;48.884;8.696;2022-07-29T13:07:39;29.00;99.90
22742;DHT22;11538;48.884;8.696;2022-07-29T13:10:22;29.00;99.90
22742;DHT22;11538;48.884;8.696;2022-07-29T13:13:08;29.00;99.90
22742;DHT22;11538;48.884;8.696;2022-07-29T13:15:42;29.00;99.90
22742;DHT22;11538;48.884;8.696;2022-07-29T13:18:29;29.00;99.90
22742;DHT22;11538;48.884;8.696;2022-07-29T13:21:11;29.00;99.90
22742;DHT22;11538;48.884;8.696;2022-07-29T13:23:40;29.00;99.90
22742;DHT22;11538;48.884;8.696;2022-07-29T13:26:09;29.00;99.90
22742;DHT22;11538;48.884;8.696;2022-07-29T13:31:36;29.00;99.90
22742;DHT22;11538;48.884;8.696;2022-07-29T13:34:03;29.00;99.90
22742;DHT22;11538;48.884;8.696;2022-07-29T13:36:30;29.10;99.90
22742;DHT22;11538;48.884;8.696;2022-07-29T13:38:57;29.10;99.90
22742;DHT22;11538;48.884;8.696;2022-07-29T13:41:24;29.30;99.90
22742;DHT22;11538;48.884;8.696;2022-07-29T13:43:51;29.50;99.90
22742;DHT22;11538;48.884;8.696;2022-07-29T13:46:18;29.80;99.90
22742;DHT22;11538;48.884;8.696;2022-07-29T13:48:45;30.10;99.90
22742;DHT22;11538;48.884;8.696;2022-07-29T13:51:12;30.40;99.90
22742;DHT22;11538;48.884;8.696;2022-07-29T13:53:39;30.80;99.90
22742;DHT22;11538;48.884;8.696;2022-07-29T13:56:06;31.00;99.90
22742;DHT22;11538;48.884;8.696;2022-07-29T13:58:33;31.20;99.90
22742;DHT22;11538;48.884;8.696;2022-07-29T14:01:01;31.30;99.90
22742;DHT22;11538;48.884;8.696;2022-07-29T14:03:28;31.20;99.90
22742;DHT22;11538;48.884;8.696;2022-07-29T14:05:55;31.10;99.90
22742;DHT22;11538;48.884;8.696;2022-07-29T14:08:22;31.00;99.90
22742;DHT22;11538;48.884;8.696;2022-07-29T14:10:49;30.90;99.90
22742;DHT22;11538;48.884;8.696;2022-07-29T14:13:16;30.80;99.90
22742;DHT22;11538;48.884;8.696;2022-07-29T14:15:51;30.60;99.90
22742;DHT22;11538;48.884;8.696;2022-07-29T14:18:18;30.50;99.90
22742;DHT22;11538;48.884;8.696;2022-07-29T14:20:45;30.50;99.90
22742;DHT22;11538;48.884;8.696;2022-07-29T14:23:13;30.40;99.90
22742;DHT22;11538;48.884;8.696;2022-07-29T14:25:42;30.30;99.90
22742;DHT22;11538;48.884;8.696;2022-07-29T14:28:10;30.20;99.90
22742;DHT22;11538;48.884;8.696;2022-07-29T14:30:39;30.10;99.90
22742;DHT22;11538;48.884;8.696;2022-07-29T14:33:07;30.00;99.90
22742;DHT22;11538;48.884;8.696;2022-07-29T14:35:34;30.10;99.90
22742;DHT22;11538;48.884;8.696;2022-07-29T14:38:01;30.20;99.90
22742;DHT22;11538;48.884;8.696;2022-07-29T14:40:29;30.30;99.90
22742;DHT22;11538;48.884;8.696;2022-07-29T14:42:56;30.30;99.90
22742;DHT22;11538;48.884;8.696;2022-07-29T14:45:23;30.40;99.90
22742;DHT22;11538;48.884;8.696;2022-07-29T14:47:51;30.40;99.90
22742;DHT22;11538;48.884;8.696;2022-07-29T14:50:23;30.50;99.90
22742;DHT22;11538;48.884;8.696;2022-07-29T14:52:58;30.50;99.90
22742;DHT22;11538;48.884;8.696;2022-07-29T14:55:26;30.50;99.90
22742;DHT22;11538;48.884;8.696;2022-07-29T14:57:53;30.50;99.90
22742;DHT22;11538;48.884;8.696;2022-07-29T15:00:34;30.50;99.90
22742;DHT22;11538;48.884;8.696;2022-07-29T15:03:03;30.40;99.90
22742;DHT22;11538;48.884;8.696;2022-07-29T15:05:31;30.30;99.90
22742;DHT22;11538;48.884;8.696;2022-07-29T15:08:26;30.30;99.90
22742;DHT22;11538;48.884;8.696;2022-07-29T15:10:56;30.20;99.90
22742;DHT22;11538;48.884;8.696;2022-07-29T15:13:25;30.20;99.90
22742;DHT22;11538;48.884;8.696;2022-07-29T15:15:52;30.10;99.90
22742;DHT22;11538;48.884;8.696;2022-07-29T15:18:25;30.10;99.90
22742;DHT22;11538;48.884;8.696;2022-07-29T15:20:52;30.00;99.90
22742;DHT22;11538;48.884;8.696;2022-07-29T15:23:19;30.00;99.90
22742;DHT22;11538;48.884;8.696;2022-07-29T15:25:46;29.90;99.90
22742;DHT22;11538;48.884;8.696;2022-07-29T15:28:13;29.80;99.90
22742;DHT22;11538;48.884;8.696;2022-07-29T15:30:40;29.70;99.90
22742;DHT22;11538;48.884;8.696;2022-07-29T15:33:08;29.70;99.90
22742;DHT22;11538;48.884;8.696;2022-07-29T15:35:36;29.70;99.90
22742;DHT22;11538;48.884;8.696;2022-07-29T15:38:06;29.80;99.90
22742;DHT22;11538;48.884;8.696;2022-07-29T15:40:37;29.80;99.90
22742;DHT22;11538;48.884;8.696;2022-07-29T15:43:07;29.80;99.90
22742;DHT22;11538;48.884;8.696;2022-07-29T15:45:41;29.60;99.90
22742;DHT22;11538;48.884;8.696;2022-07-29T15:48:28;29.60;99.90
22742;DHT22;11538;48.884;8.696;2022-07-29T15:50:55;29.50;99.90
22742;DHT22;11538;48.884;8.696;2022-07-29T15:53:22;29.50;99.90
22742;DHT22;11538;48.884;8.696;2022-07-29T15:55:49;29.50;99.90
22742;DHT22;11538;48.884;8.696;2022-07-29T15:58:16;29.40;99.90
22742;DHT22;11538;48.884;8.696;2022-07-29T16:00:43;29.40;99.90
22742;DHT22;11538;48.884;8.696;2022-07-29T16:03:10;29.30;99.90
22742;DHT22;11538;48.884;8.696;2022-07-29T16:05:38;29.30;99.90
22742;DHT22;11538;48.884;8.696;2022-07-29T16:08:05;29.30;99.90
22742;DHT22;11538;48.884;8.696;2022-07-29T16:10:32;29.20;99.90
22742;DHT22;11538;48.884;8.696;2022-07-29T16:12:59;29.10;99.90
22742;DHT22;11538;48.884;8.696;2022-07-29T16:15:26;29.00;99.90
22742;DHT22;11538;48.884;8.696;2022-07-29T16:17:53;29.00;99.90
22742;DHT22;11538;48.884;8.696;2022-07-29T16:20:20;28.90;99.90
22742;DHT22;11538;48.884;8.696;2022-07-29T16:22:48;28.90;99.90
22742;DHT22;11538;48.884;8.696;2022-07-29T16:25:15;28.90;99.90
22742;DHT22;11538;48.884;8.696;2022-07-29T16:27:42;28.80;99.90
22742;DHT22;11538;48.884;8.696;2022-07-29T16:30:10;28.70;99.90
22742;DHT22;11538;48.884;8.696;2022-07-29T16:32:37;28.70;99.90
22742;DHT22;11538;48.884;8.696;2022-07-29T16:35:06;28.60;99.90
22742;DHT22;11538;48.884;8.696;2022-07-29T16:37:37;28.60;99.90